sensor_id;sensor_type;location;lat;lon;timestamp;pressure;altitude;pressure_sealevel;temperature
70969;BMP280;58630;43.022;25.100;2022-09-17T00:00:11;98432.34;;;25.30
70969;BMP280;58630;43.022;25.100;2022-09-17T00:02:36;98420.94;;;25.30
70969;BMP280;58630;43.022;25.100;2022-09-17T00:05:02;98423.59;;;25.30
70969;BMP280;58630;43.022;25.100;2022-09-17T00:07:27;98424.78;;;25.29
70969;BMP280;58630;43.022;25.100;2022-09-17T00:09:52;98420.59;;;25.28
70969;BMP280;58630;43.022;25.100;2022-09-17T00:12:18;98408.41;;;25.27
70969;BMP280;58630;43.022;25.100;2022-09-17T00:14:43;98409.56;;;25.26
70969;BMP280;58630;43.022;25.100;2022-09-17T00:17:08;98419.44;;;25.25
70969;BMP280;58630;43.022;25.100;2022-09-17T00:19:34;98423.25;;;25.24
70969;BMP280;58630;43.022;25.100;2022-09-17T00:21:59;98410.72;;;25.25
70969;BMP280;58630;43.022;25.100;2022-09-17T00:24:24;98407.66;;;25.23
70969;BMP280;58630;43.022;25.100;2022-09-17T00:26:49;98412.25;;;25.23
70969;BMP280;58630;43.022;25.100;2022-09-17T00:29:15;98405.00;;;25.23
70969;BMP280;58630;43.022;25.100;2022-09-17T00:31:41;98403.88;;;25.21
70969;BMP280;58630;43.022;25.100;2022-09-17T00:34:06;98390.97;;;25.19
70969;BMP280;58630;43.022;25.100;2022-09-17T00:36:35;98376.94;;;25.19
70969;BMP280;58630;43.022;25.100;2022-09-17T00:39:04;98377.69;;;25.19
70969;BMP280;58630;43.022;25.100;2022-09-17T00:41:30;98369.31;;;25.17
70969;BMP280;58630;43.022;25.100;2022-09-17T00:43:57;98371.22;;;25.17
70969;BMP280;58630;43.022;25.100;2022-09-17T00:48:55;98372.72;;;25.14
70969;BMP280;58630;43.022;25.100;2022-09-17T00:51:24;98366.66;;;25.14
70969;BMP280;58630;43.022;25.100;2022-09-17T00:53:51;98360.56;;;25.13
70969;BMP280;58630;43.022;25.100;2022-09-17T00:56:18;98367.81;;;25.13
70969;BMP280;58630;43.022;25.100;2022-09-17T00:58:46;98376.94;;;25.12
70969;BMP280;58630;43.022;25.100;2022-09-17T01:01:12;98375.03;;;25.12
70969;BMP280;58630;43.022;25.100;2022-09-17T01:03:38;98368.56;;;25.10
70969;BMP280;58630;43.022;25.100;2022-09-17T01:16:18;98351.88;;;25.06
70969;BMP280;58630;43.022;25.100;2022-09-17T01:32:33;98349.59;;;25.01
70969;BMP280;58630;43.022;25.100;2022-09-17T01:35:02;98342.41;;;25.01
70969;BMP280;58630;43.022;25.100;2022-09-17T01:39:56;98339.72;;;24.98
70969;BMP280;58630;43.022;25.100;2022-09-17T01:42:26;98333.28;;;24.95
70969;BMP280;58630;43.022;25.100;2022-09-17T01:47:34;98325.31;;;24.95
70969;BMP280;58630;43.022;25.100;2022-09-17T01:52:49;98324.53;;;24.95
70969;BMP280;58630;43.022;25.100;2022-09-17T01:55:16;98322.25;;;24.93
70969;BMP280;58630;43.022;25.100;2022-09-17T02:00:11;98310.13;;;24.92
70969;BMP280;58630;43.022;25.100;2022-09-17T02:05:20;98321.16;;;24.91
70969;BMP280;58630;43.022;25.100;2022-09-17T02:07:51;98314.69;;;24.88
70969;BMP280;58630;43.022;25.100;2022-09-17T02:10:17;98308.63;;;24.88
70969;BMP280;58630;43.022;25.100;2022-09-17T02:12:45;98307.09;;;24.87
70969;BMP280;58630;43.022;25.100;2022-09-17T02:15:13;98313.16;;;24.87
70969;BMP280;58630;43.022;25.100;2022-09-17T02:20:37;98305.94;;;24.84
70969;BMP280;58630;43.022;25.100;2022-09-17T02:23:05;98310.50;;;24.84
70969;BMP280;58630;43.022;25.100;2022-09-17T02:28:00;98315.47;;;24.82
70969;BMP280;58630;43.022;25.100;2022-09-17T02:30:26;98318.47;;;24.80
70969;BMP280;58630;43.022;25.100;2022-09-17T02:32:52;98330.25;;;24.79
70969;BMP280;58630;43.022;25.100;2022-09-17T02:35:17;98325.31;;;24.78
70969;BMP280;58630;43.022;25.100;2022-09-17T02:37:43;98319.25;;;24.77
70969;BMP280;58630;43.022;25.100;2022-09-17T02:40:09;98313.16;;;24.77
70969;BMP280;58630;43.022;25.100;2022-09-17T02:45:37;98305.97;;;24.77
70969;BMP280;58630;43.022;25.100;2022-09-17T03:00:21;98248.28;;;24.71
70969;BMP280;58630;43.022;25.100;2022-09-17T03:02:58;98255.50;;;24.71
70969;BMP280;58630;43.022;25.100;2022-09-17T03:05:24;98241.44;;;24.70
70969;BMP280;58630;43.022;25.100;2022-09-17T03:07:50;98240.34;;;24.68
70969;BMP280;58630;43.022;25.100;2022-09-17T03:10:15;98231.59;;;24.67
70969;BMP280;58630;43.022;25.100;2022-09-17T03:12:41;98244.88;;;24.67
70969;BMP280;58630;43.022;25.100;2022-09-17T03:15:07;98247.16;;;24.65
70969;BMP280;58630;43.022;25.100;2022-09-17T03:17:32;98250.94;;;24.64
70969;BMP280;58630;43.022;25.100;2022-09-17T03:19:57;98238.06;;;24.63
70969;BMP280;58630;43.022;25.100;2022-09-17T03:22:23;98222.13;;;24.63
70969;BMP280;58630;43.022;25.100;2022-09-17T03:24:48;98213.38;;;24.62
70969;BMP280;58630;43.022;25.100;2022-09-17T03:27:14;98211.13;;;24.61
70969;BMP280;58630;43.022;25.100;2022-09-17T03:29:39;98222.91;;;24.60
70969;BMP280;58630;43.022;25.100;2022-09-17T03:32:04;98214.19;;;24.59
70969;BMP280;58630;43.022;25.100;2022-09-17T03:34:30;98204.31;;;24.56
70969;BMP280;58630;43.022;25.100;2022-09-17T03:36:55;98211.50;;;24.56
70969;BMP280;58630;43.022;25.100;2022-09-17T03:39:20;98219.47;;;24.56
70969;BMP280;58630;43.022;25.100;2022-09-17T03:41:46;98227.06;;;24.54
70969;BMP280;58630;43.022;25.100;2022-09-17T03:44:11;98211.13;;;24.54
70969;BMP280;58630;43.022;25.100;2022-09-17T03:46:36;98203.56;;;24.52
70969;BMP280;58630;43.022;25.100;2022-09-17T03:49:01;98210.00;;;24.51
70969;BMP280;58630;43.022;25.100;2022-09-17T03:51:27;98207.69;;;24.50
70969;BMP280;58630;43.022;25.100;2022-09-17T03:53:52;98209.22;;;24.51
70969;BMP280;58630;43.022;25.100;2022-09-17T03:56:18;98182.69;;;24.51
70969;BMP280;58630;43.022;25.100;2022-09-17T03:58:43;98176.63;;;24.50
70969;BMP280;58630;43.022;25.100;2022-09-17T04:01:08;98173.19;;;24.50
70969;BMP280;58630;43.022;25.100;2022-09-17T04:03:34;98178.13;;;24.48
70969;BMP280;58630;43.022;25.100;2022-09-17T04:05:59;98162.19;;;24.48
70969;BMP280;58630;43.022;25.100;2022-09-17T04:08:24;98162.59;;;24.46
70969;BMP280;58630;43.022;25.100;2022-09-17T04:10:49;98163.75;;;24.45
70969;BMP280;58630;43.022;25.100;2022-09-17T04:13:17;98168.31;;;24.45
70969;BMP280;58630;43.022;25.100;2022-09-17T04:15:44;98176.25;;;24.45
70969;BMP280;58630;43.022;25.100;2022-09-17T04:18:09;98183.44;;;24.44
70969;BMP280;58630;43.022;25.100;2022-09-17T04:20:34;98188.03;;;24.44
70969;BMP280;58630;43.022;25.100;2022-09-17T04:22:59;98166.78;;;24.44
70969;BMP280;58630;43.022;25.100;2022-09-17T04:25:25;98167.94;;;24.43
70969;BMP280;58630;43.022;25.100;2022-09-17T04:27:50;98186.53;;;24.43
70969;BMP280;58630;43.022;25.100;2022-09-17T04:30:16;98189.53;;;24.41
70969;BMP280;58630;43.022;25.100;2022-09-17T04:32:44;98200.94;;;24.42
70969;BMP280;58630;43.022;25.100;2022-09-17T04:35:10;98200.94;;;24.42
70969;BMP280;58630;43.022;25.100;2022-09-17T04:37:35;98204.72;;;24.41
70969;BMP280;58630;43.022;25.100;2022-09-17T04:40:01;98206.22;;;24.42
70969;BMP280;58630;43.022;25.100;2022-09-17T04:42:26;98200.94;;;24.42
70969;BMP280;58630;43.022;25.100;2022-09-17T04:44:51;98205.47;;;24.41
70969;BMP280;58630;43.022;25.100;2022-09-17T04:47:17;98200.94;;;24.42
70969;BMP280;58630;43.022;25.100;2022-09-17T04:49:42;98199.78;;;24.43
70969;BMP280;58630;43.022;25.100;2022-09-17T04:52:07;98197.13;;;24.43
70969;BMP280;58630;43.022;25.100;2022-09-17T04:54:32;98189.19;;;24.43
70969;BMP280;58630;43.022;25.100;2022-09-17T04:56:58;98175.91;;;24.43
70969;BMP280;58630;43.022;25.100;2022-09-17T04:59:23;98178.16;;;24.44
70969;BMP280;58630;43.022;25.100;2022-09-17T05:01:49;98178.16;;;24.44
70969;BMP280;58630;43.022;25.100;2022-09-17T05:04:14;98172.09;;;24.44
70969;BMP280;58630;43.022;25.100;2022-09-17T05:06:40;98178.91;;;24.45
70969;BMP280;58630;43.022;25.100;2022-09-17T05:09:05;98178.53;;;24.46
70969;BMP280;58630;43.022;25.100;2022-09-17T05:11:30;98160.34;;;24.45
70969;BMP280;58630;43.022;25.100;2022-09-17T05:13:55;98169.81;;;24.46
70969;BMP280;58630;43.022;25.100;2022-09-17T05:16:21;98178.91;;;24.45
70969;BMP280;58630;43.022;25.100;2022-09-17T05:18:46;98180.44;;;24.46
70969;BMP280;58630;43.022;25.100;2022-09-17T05:21:13;98192.53;;;24.47
70969;BMP280;58630;43.022;25.100;2022-09-17T05:23:38;98186.50;;;24.46
70969;BMP280;58630;43.022;25.100;2022-09-17T05:26:04;98195.97;;;24.47
70969;BMP280;58630;43.022;25.100;2022-09-17T05:28:29;98197.13;;;24.46
70969;BMP280;58630;43.022;25.100;2022-09-17T05:30:57;98202.44;;;24.46
70969;BMP280;58630;43.022;25.100;2022-09-17T05:33:22;98195.59;;;24.45
70969;BMP280;58630;43.022;25.100;2022-09-17T05:35:47;98189.88;;;24.47
70969;BMP280;58630;43.022;25.100;2022-09-17T05:38:13;98186.50;;;24.46
70969;BMP280;58630;43.022;25.100;2022-09-17T05:40:38;98183.09;;;24.46
70969;BMP280;58630;43.022;25.100;2022-09-17T05:43:04;98176.25;;;24.45
70969;BMP280;58630;43.022;25.100;2022-09-17T05:45:31;98184.22;;;24.45
70969;BMP280;58630;43.022;25.100;2022-09-17T05:47:57;98178.53;;;24.46
70969;BMP280;58630;43.022;25.100;2022-09-17T05:50:23;98184.56;;;24.47
70969;BMP280;58630;43.022;25.100;2022-09-17T05:52:49;98179.25;;;24.47
70969;BMP280;58630;43.022;25.100;2022-09-17T05:55:15;98186.09;;;24.48
70969;BMP280;58630;43.022;25.100;2022-09-17T05:57:40;98201.69;;;24.46
70969;BMP280;58630;43.022;25.100;2022-09-17T06:00:05;98203.56;;;24.45
70969;BMP280;58630;43.022;25.100;2022-09-17T06:02:31;98207.00;;;24.46
70969;BMP280;58630;43.022;25.100;2022-09-17T06:04:56;98210.78;;;24.45
70969;BMP280;58630;43.022;25.100;2022-09-17T06:07:25;98193.31;;;24.44
70969;BMP280;58630;43.022;25.100;2022-09-17T06:09:50;98226.72;;;24.45
70969;BMP280;58630;43.022;25.100;2022-09-17T06:12:15;98221.41;;;24.45
70969;BMP280;58630;43.022;25.100;2022-09-17T06:14:40;98210.78;;;24.45
70969;BMP280;58630;43.022;25.100;2022-09-17T06:17:06;98215.31;;;24.44
70969;BMP280;58630;43.022;25.100;2022-09-17T06:19:31;98203.16;;;24.43
70969;BMP280;58630;43.022;25.100;2022-09-17T06:21:56;98215.72;;;24.43
70969;BMP280;58630;43.022;25.100;2022-09-17T06:24:21;98227.47;;;24.42
70969;BMP280;58630;43.022;25.100;2022-09-17T06:26:47;98210.03;;;24.41
70969;BMP280;58630;43.022;25.100;2022-09-17T06:29:12;98210.75;;;24.41
70969;BMP280;58630;43.022;25.100;2022-09-17T06:31:39;98215.34;;;24.41
70969;BMP280;58630;43.022;25.100;2022-09-17T06:34:04;98212.69;;;24.41
70969;BMP280;58630;43.022;25.100;2022-09-17T06:36:29;98224.44;;;24.40
70969;BMP280;58630;43.022;25.100;2022-09-17T06:38:54;98223.69;;;24.39
70969;BMP280;58630;43.022;25.100;2022-09-17T06:41:21;98230.47;;;24.40
70969;BMP280;58630;43.022;25.100;2022-09-17T06:43:46;98208.50;;;24.40
70969;BMP280;58630;43.022;25.100;2022-09-17T06:46:11;98213.41;;;24.41
70969;BMP280;58630;43.022;25.100;2022-09-17T06:48:37;98228.59;;;24.41
70969;BMP280;58630;43.022;25.100;2022-09-17T06:51:03;98238.09;;;24.42
70969;BMP280;58630;43.022;25.100;2022-09-17T06:53:29;98233.53;;;24.42
70969;BMP280;58630;43.022;25.100;2022-09-17T06:55:55;98236.97;;;24.43
70969;BMP280;58630;43.022;25.100;2022-09-17T06:58:21;98235.44;;;24.42
70969;BMP280;58630;43.022;25.100;2022-09-17T07:00:46;98237.69;;;24.43
70969;BMP280;58630;43.022;25.100;2022-09-17T07:03:11;98235.03;;;24.43
70969;BMP280;58630;43.022;25.100;2022-09-17T07:05:37;98227.84;;;24.44
70969;BMP280;58630;43.022;25.100;2022-09-17T07:08:02;98223.69;;;24.46
70969;BMP280;58630;43.022;25.100;2022-09-17T07:10:28;98232.00;;;24.48
70969;BMP280;58630;43.022;25.100;2022-09-17T07:12:53;98228.94;;;24.50
70969;BMP280;58630;43.022;25.100;2022-09-17T07:15:19;98237.31;;;24.52
70969;BMP280;58630;43.022;25.100;2022-09-17T07:17:44;98223.66;;;24.53
70969;BMP280;58630;43.022;25.100;2022-09-17T07:20:10;98228.59;;;24.55
70969;BMP280;58630;43.022;25.100;2022-09-17T07:22:35;98216.81;;;24.56
70969;BMP280;58630;43.022;25.100;2022-09-17T07:25:01;98223.63;;;24.57
70969;BMP280;58630;43.022;25.100;2022-09-17T07:27:27;98231.25;;;24.58
70969;BMP280;58630;43.022;25.100;2022-09-17T07:29:53;98233.91;;;24.58
70969;BMP280;58630;43.022;25.100;2022-09-17T07:32:18;98228.97;;;24.60
70969;BMP280;58630;43.022;25.100;2022-09-17T07:34:43;98214.56;;;24.61
70969;BMP280;58630;43.022;25.100;2022-09-17T07:37:08;98208.47;;;24.61
70969;BMP280;58630;43.022;25.100;2022-09-17T07:39:34;98211.50;;;24.63
70969;BMP280;58630;43.022;25.100;2022-09-17T07:41:59;98207.69;;;24.64
70969;BMP280;58630;43.022;25.100;2022-09-17T07:44:24;98209.22;;;24.65
70969;BMP280;58630;43.022;25.100;2022-09-17T07:46:50;98194.81;;;24.66
70969;BMP280;58630;43.022;25.100;2022-09-17T07:49:15;98194.41;;;24.67
70969;BMP280;58630;43.022;25.100;2022-09-17T07:51:40;98205.03;;;24.71
70969;BMP280;58630;43.022;25.100;2022-09-17T07:54:06;98204.28;;;24.73
70969;BMP280;58630;43.022;25.100;2022-09-17T07:56:31;98216.78;;;24.76
70969;BMP280;58630;43.022;25.100;2022-09-17T07:58:57;98210.34;;;24.77
70969;BMP280;58630;43.022;25.100;2022-09-17T08:01:22;98213.38;;;24.76
70969;BMP280;58630;43.022;25.100;2022-09-17T08:03:51;98229.69;;;24.74
70969;BMP280;58630;43.022;25.100;2022-09-17T08:06:21;98237.31;;;24.73
70969;BMP280;58630;43.022;25.100;2022-09-17T08:08:47;98224.78;;;24.73
70969;BMP280;58630;43.022;25.100;2022-09-17T08:11:14;98217.56;;;24.73
70969;BMP280;58630;43.022;25.100;2022-09-17T08:13:40;98205.78;;;24.74
70969;BMP280;58630;43.022;25.100;2022-09-17T08:16:09;98230.44;;;24.78
70969;BMP280;58630;43.022;25.100;2022-09-17T08:18:37;98219.03;;;24.81
70969;BMP280;58630;43.022;25.100;2022-09-17T08:21:03;98216.00;;;24.86
70969;BMP280;58630;43.022;25.100;2022-09-17T08:23:29;98239.91;;;24.90
70969;BMP280;58630;43.022;25.100;2022-09-17T08:25:58;98230.41;;;24.92
70969;BMP280;58630;43.022;25.100;2022-09-17T08:28:24;98234.56;;;24.93
70969;BMP280;58630;43.022;25.100;2022-09-17T08:30:50;98219.38;;;24.97
70969;BMP280;58630;43.022;25.100;2022-09-17T08:33:16;98218.63;;;25.00
70969;BMP280;58630;43.022;25.100;2022-09-17T08:35:42;98218.59;;;25.04
70969;BMP280;58630;43.022;25.100;2022-09-17T08:38:07;98233.78;;;25.07
70969;BMP280;58630;43.022;25.100;2022-09-17T08:40:33;98228.84;;;25.09
70969;BMP280;58630;43.022;25.100;2022-09-17T08:43:01;98215.13;;;25.10
70969;BMP280;58630;43.022;25.100;2022-09-17T08:45:26;98200.38;;;25.13
70969;BMP280;58630;43.022;25.100;2022-09-17T08:48:00;98193.88;;;25.14
70969;BMP280;58630;43.022;25.100;2022-09-17T08:50:26;98182.47;;;25.13
70969;BMP280;58630;43.022;25.100;2022-09-17T09:00:23;98171.06;;;25.20
70969;BMP280;58630;43.022;25.100;2022-09-17T09:10:45;98155.03;;;25.33
70969;BMP280;58630;43.022;25.100;2022-09-17T09:13:12;98143.63;;;25.40
70969;BMP280;58630;43.022;25.100;2022-09-17T09:15:40;98145.47;;;25.46
70969;BMP280;58630;43.022;25.100;2022-09-17T09:18:12;98143.16;;;25.52
70969;BMP280;58630;43.022;25.100;2022-09-17T09:20:51;98137.78;;;25.59
70969;BMP280;58630;43.022;25.100;2022-09-17T09:25:51;98142.28;;;25.68
70969;BMP280;58630;43.022;25.100;2022-09-17T09:33:14;98125.84;;;25.80
70969;BMP280;58630;43.022;25.100;2022-09-17T09:35:41;98125.06;;;25.83
70969;BMP280;58630;43.022;25.100;2022-09-17T09:43:06;98125.72;;;25.94
70969;BMP280;58630;43.022;25.100;2022-09-17T09:45:43;98126.06;;;26.00
70969;BMP280;58630;43.022;25.100;2022-09-17T09:51:00;98116.41;;;26.13
70969;BMP280;58630;43.022;25.100;2022-09-17T09:58:42;98123.06;;;26.34
70969;BMP280;58630;43.022;25.100;2022-09-17T10:01:12;98123.34;;;26.40
70969;BMP280;58630;43.022;25.100;2022-09-17T10:03:38;98121.81;;;26.42
70969;BMP280;58630;43.022;25.100;2022-09-17T10:06:05;98108.09;;;26.44
70969;BMP280;58630;43.022;25.100;2022-09-17T10:08:33;98105.44;;;26.44
70969;BMP280;58630;43.022;25.100;2022-09-17T10:11:00;98108.50;;;26.42
70969;BMP280;58630;43.022;25.100;2022-09-17T10:13:27;98113.47;;;26.40
70969;BMP280;58630;43.022;25.100;2022-09-17T10:15:52;98110.84;;;26.37
70969;BMP280;58630;43.022;25.100;2022-09-17T10:23:14;98105.25;;;26.28
70969;BMP280;58630;43.022;25.100;2022-09-17T10:25:42;98097.66;;;26.23
70969;BMP280;58630;43.022;25.100;2022-09-17T10:28:27;98096.53;;;26.20
70969;BMP280;58630;43.022;25.100;2022-09-17T10:30:54;98099.59;;;26.19
70969;BMP280;58630;43.022;25.100;2022-09-17T10:33:20;98100.81;;;26.15
70969;BMP280;58630;43.022;25.100;2022-09-17T10:35:54;98100.44;;;26.13
70969;BMP280;58630;43.022;25.100;2022-09-17T10:38:31;98111.47;;;26.11
70969;BMP280;58630;43.022;25.100;2022-09-17T10:43:34;98121.81;;;26.06
70969;BMP280;58630;43.022;25.100;2022-09-17T10:46:00;98123.34;;;26.03
70969;BMP280;58630;43.022;25.100;2022-09-17T10:48:27;98132.50;;;26.02
70969;BMP280;58630;43.022;25.100;2022-09-17T10:50:55;98152.69;;;26.00
70969;BMP280;58630;43.022;25.100;2022-09-17T10:53:20;98151.94;;;25.99
70969;BMP280;58630;43.022;25.100;2022-09-17T11:01:04;98203.63;;;25.98
70969;BMP280;58630;43.022;25.100;2022-09-17T11:03:45;98236.34;;;25.95
70969;BMP280;58630;43.022;25.100;2022-09-17T11:06:30;98239.38;;;25.97
70969;BMP280;58630;43.022;25.100;2022-09-17T11:09:15;98252.69;;;25.97
70969;BMP280;58630;43.022;25.100;2022-09-17T11:19:10;98289.31;;;25.76
70969;BMP280;58630;43.022;25.100;2022-09-17T11:21:42;98322.03;;;25.73
70969;BMP280;58630;43.022;25.100;2022-09-17T11:32:21;98385.16;;;25.66
70969;BMP280;58630;43.022;25.100;2022-09-17T11:34:57;98401.84;;;25.66
70969;BMP280;58630;43.022;25.100;2022-09-17T11:37:29;98412.13;;;25.64
70969;BMP280;58630;43.022;25.100;2022-09-17T11:40:01;98426.59;;;25.60
70969;BMP280;58630;43.022;25.100;2022-09-17T11:45:13;98396.56;;;25.56
70969;BMP280;58630;43.022;25.100;2022-09-17T11:47:43;98336.56;;;25.55
70969;BMP280;58630;43.022;25.100;2022-09-17T11:50:19;98319.06;;;25.54
70969;BMP280;58630;43.022;25.100;2022-09-17T11:53:13;98304.25;;;25.53
70969;BMP280;58630;43.022;25.100;2022-09-17T11:57:58;98303.88;;;25.51
70969;BMP280;58630;43.022;25.100;2022-09-17T12:00:24;98302.75;;;25.52
70969;BMP280;58630;43.022;25.100;2022-09-17T12:02:56;98305.78;;;25.50
70969;BMP280;58630;43.022;25.100;2022-09-17T12:05:24;98309.19;;;25.51
70969;BMP280;58630;43.022;25.100;2022-09-17T12:07:54;98322.88;;;25.49
70969;BMP280;58630;43.022;25.100;2022-09-17T12:13:06;98305.78;;;25.50
70969;BMP280;58630;43.022;25.100;2022-09-17T12:15:35;98309.97;;;25.51
70969;BMP280;58630;43.022;25.100;2022-09-17T12:20:46;98286.41;;;25.50
70969;BMP280;58630;43.022;25.100;2022-09-17T12:23:14;98303.13;;;25.50
70969;BMP280;58630;43.022;25.100;2022-09-17T12:25:49;98243.47;;;25.51
70969;BMP280;58630;43.022;25.100;2022-09-17T12:28:20;98225.59;;;25.55
70969;BMP280;58630;43.022;25.100;2022-09-17T12:30:56;98214.56;;;25.57
70969;BMP280;58630;43.022;25.100;2022-09-17T12:41:02;98194.72;;;25.68
70969;BMP280;58630;43.022;25.100;2022-09-17T13:07:50;98178.81;;;26.08
70969;BMP280;58630;43.022;25.100;2022-09-17T13:12:46;98175.09;;;26.39
70969;BMP280;58630;43.022;25.100;2022-09-17T13:15:27;98179.00;;;26.67
70969;BMP280;58630;43.022;25.100;2022-09-17T13:18:14;98176.00;;;26.95
70969;BMP280;58630;43.022;25.100;2022-09-17T13:23:07;98180.78;;;27.07
70969;BMP280;58630;43.022;25.100;2022-09-17T13:25:34;98166.31;;;27.08
70969;BMP280;58630;43.022;25.100;2022-09-17T13:28:13;98151.84;;;27.06
70969;BMP280;58630;43.022;25.100;2022-09-17T13:38:55;98131.63;;;26.78
70969;BMP280;58630;43.022;25.100;2022-09-17T13:41:21;98129.47;;;26.70
70969;BMP280;58630;43.022;25.100;2022-09-17T13:43:48;98129.94;;;26.65
70969;BMP280;58630;43.022;25.100;2022-09-17T13:46:14;98125.06;;;26.57
70969;BMP280;58630;43.022;25.100;2022-09-17T13:48:47;98127.75;;;26.53
70969;BMP280;58630;43.022;25.100;2022-09-17T13:53:54;98139.66;;;26.45
70969;BMP280;58630;43.022;25.100;2022-09-17T13:59:07;98132.88;;;26.41
70969;BMP280;58630;43.022;25.100;2022-09-17T14:15:01;98120.91;;;26.56
70969;BMP280;58630;43.022;25.100;2022-09-17T14:20:09;98114.28;;;26.67
70969;BMP280;58630;43.022;25.100;2022-09-17T14:22:36;98098.72;;;26.65
70969;BMP280;58630;43.022;25.100;2022-09-17T14:25:01;98109.75;;;26.64
70969;BMP280;58630;43.022;25.100;2022-09-17T14:30:14;98117.81;;;26.57
70969;BMP280;58630;43.022;25.100;2022-09-17T14:32:45;98093.88;;;26.54
70969;BMP280;58630;43.022;25.100;2022-09-17T14:37:41;98070.38;;;26.49
70969;BMP280;58630;43.022;25.100;2022-09-17T14:40:08;98065.84;;;26.46
70969;BMP280;58630;43.022;25.100;2022-09-17T14:42:34;98059.00;;;26.45
70969;BMP280;58630;43.022;25.100;2022-09-17T14:45:01;98062.09;;;26.40
70969;BMP280;58630;43.022;25.100;2022-09-17T14:47:27;98055.25;;;26.39
70969;BMP280;58630;43.022;25.100;2022-09-17T14:49:53;98050.75;;;26.36
70969;BMP280;58630;43.022;25.100;2022-09-17T14:52:28;98046.22;;;26.33
70969;BMP280;58630;43.022;25.100;2022-09-17T14:55:13;98043.94;;;26.31
70969;BMP280;58630;43.022;25.100;2022-09-17T14:57:39;98063.00;;;26.30
70969;BMP280;58630;43.022;25.100;2022-09-17T15:00:04;98060.69;;;26.28
70969;BMP280;58630;43.022;25.100;2022-09-17T15:02:32;98056.53;;;26.27
70969;BMP280;58630;43.022;25.100;2022-09-17T15:04:58;98061.13;;;26.27
70969;BMP280;58630;43.022;25.100;2022-09-17T15:07:24;98060.78;;;26.25
70969;BMP280;58630;43.022;25.100;2022-09-17T15:09:49;98050.88;;;26.22
70969;BMP280;58630;43.022;25.100;2022-09-17T15:12:19;98062.28;;;26.22
70969;BMP280;58630;43.022;25.100;2022-09-17T15:14:45;98037.19;;;26.23
70969;BMP280;58630;43.022;25.100;2022-09-17T15:17:12;98026.94;;;26.22
70969;BMP280;58630;43.022;25.100;2022-09-17T15:19:39;98024.25;;;26.22
70969;BMP280;58630;43.022;25.100;2022-09-17T15:22:16;98026.94;;;26.22
70969;BMP280;58630;43.022;25.100;2022-09-17T15:24:46;98027.31;;;26.20
70969;BMP280;58630;43.022;25.100;2022-09-17T15:29:41;98014.41;;;26.19
70969;BMP280;58630;43.022;25.100;2022-09-17T15:32:09;98006.84;;;26.17
70969;BMP280;58630;43.022;25.100;2022-09-17T15:34:35;97994.69;;;26.16
70969;BMP280;58630;43.022;25.100;2022-09-17T15:37:04;98004.97;;;26.15
70969;BMP280;58630;43.022;25.100;2022-09-17T15:39:35;97998.53;;;26.12
70969;BMP280;58630;43.022;25.100;2022-09-17T15:42:02;97997.78;;;26.12
70969;BMP280;58630;43.022;25.100;2022-09-17T15:44:27;98008.81;;;26.10
70969;BMP280;58630;43.022;25.100;2022-09-17T15:46:52;98024.44;;;26.08
70969;BMP280;58630;43.022;25.100;2022-09-17T15:49:27;98030.91;;;26.07
70969;BMP280;58630;43.022;25.100;2022-09-17T15:51:53;98042.69;;;26.06
70969;BMP280;58630;43.022;25.100;2022-09-17T15:54:27;98046.50;;;26.05
70969;BMP280;58630;43.022;25.100;2022-09-17T15:56:53;98046.16;;;26.03
70969;BMP280;58630;43.022;25.100;2022-09-17T15:59:27;98029.84;;;26.01
70969;BMP280;58630;43.022;25.100;2022-09-17T16:01:53;98016.19;;;25.99
70969;BMP280;58630;43.022;25.100;2022-09-17T16:04:21;98023.41;;;25.99
70969;BMP280;58630;43.022;25.100;2022-09-17T16:06:56;98021.13;;;25.97
70969;BMP280;58630;43.022;25.100;2022-09-17T16:09:36;98021.91;;;25.94
70969;BMP280;58630;43.022;25.100;2022-09-17T16:12:02;98035.22;;;25.94
70969;BMP280;58630;43.022;25.100;2022-09-17T16:14:27;98026.91;;;25.92
70969;BMP280;58630;43.022;25.100;2022-09-17T16:16:52;98038.69;;;25.91
70969;BMP280;58630;43.022;25.100;2022-09-17T16:19:20;98027.69;;;25.89
70969;BMP280;58630;43.022;25.100;2022-09-17T16:21:45;98014.38;;;25.89
70969;BMP280;58630;43.022;25.100;2022-09-17T16:24:10;97977.53;;;25.88
70969;BMP280;58630;43.022;25.100;2022-09-17T16:26:35;97975.25;;;25.86
70969;BMP280;58630;43.022;25.100;2022-09-17T16:29:03;97974.16;;;25.84
70969;BMP280;58630;43.022;25.100;2022-09-17T16:31:28;97962.00;;;25.83
70969;BMP280;58630;43.022;25.100;2022-09-17T16:33:54;97950.22;;;25.80
70969;BMP280;58630;43.022;25.100;2022-09-17T16:36:19;97962.38;;;25.81
70969;BMP280;58630;43.022;25.100;2022-09-17T16:38:45;97975.31;;;25.79
70969;BMP280;58630;43.022;25.100;2022-09-17T16:41:10;97971.13;;;25.78
70969;BMP280;58630;43.022;25.100;2022-09-17T16:43:36;97979.13;;;25.78
70969;BMP280;58630;43.022;25.100;2022-09-17T16:46:02;97978.38;;;25.78
70969;BMP280;58630;43.022;25.100;2022-09-17T16:48:27;97980.69;;;25.76
70969;BMP280;58630;43.022;25.100;2022-09-17T16:50:53;97982.56;;;25.75
70969;BMP280;58630;43.022;25.100;2022-09-17T16:53:18;97987.16;;;25.75
70969;BMP280;58630;43.022;25.100;2022-09-17T16:55:43;98018.31;;;25.74
70969;BMP280;58630;43.022;25.100;2022-09-17T16:58:08;98003.50;;;25.73
70969;BMP280;58630;43.022;25.100;2022-09-17T17:00:34;97994.78;;;25.73
70969;BMP280;58630;43.022;25.100;2022-09-17T17:03:01;97988.72;;;25.72
70969;BMP280;58630;43.022;25.100;2022-09-17T17:05:26;97989.84;;;25.71
70969;BMP280;58630;43.022;25.100;2022-09-17T17:07:51;97992.91;;;25.70
70969;BMP280;58630;43.022;25.100;2022-09-17T17:10:19;98011.53;;;25.70
70969;BMP280;58630;43.022;25.100;2022-09-17T17:12:44;98011.94;;;25.68
70969;BMP280;58630;43.022;25.100;2022-09-17T17:15:09;97997.13;;;25.68
70969;BMP280;58630;43.022;25.100;2022-09-17T17:17:35;98006.25;;;25.67
70969;BMP280;58630;43.022;25.100;2022-09-17T17:20:00;97988.78;;;25.66
70969;BMP280;58630;43.022;25.100;2022-09-17T17:22:28;97976.63;;;25.65
70969;BMP280;58630;43.022;25.100;2022-09-17T17:24:53;97974.75;;;25.62